Time;durP1;ratioP1;P1;durP2;ratioP2;P2;SDS_P1;SDS_P2;PMS_P1;PMS_P2;Temp;Humidity;BMP_temperature;BMP_pressure;BME280_temperature;BME280_humidity;BME280_pressure;Samples;Min_cycle;Max_cycle;Signal;HPM_P1;HPM_P2
2022/09/17 00:02:15;;;;;;;;;;;21.80;46.40;;;;;;8332550;28;19993;-44
2022/09/17 00:06:16;;;;;;;;;;;21.80;46.40;;;;;;8331777;28;19925;-46
2022/09/17 00:10:17;;;;;;;;;;;21.80;46.40;;;;;;8331885;28;19913;-44
2022/09/17 00:14:17;;;;;;;;;;;21.80;46.40;;;;;;8332232;28;19948;-43
2022/09/17 00:18:18;;;;;;;;;;;21.80;46.40;;;;;;8331395;28;20371;-44
2022/09/17 00:22:18;;;;;;;;;;;21.80;46.40;;;;;;8331699;28;20263;-45
2022/09/17 00:26:19;;;;;;;;;;;21.70;46.30;;;;;;8331644;28;20378;-44
2022/09/17 00:30:19;;;;;;;;;;;21.70;46.30;;;;;;8331291;28;19920;-45
2022/09/17 00:34:19;;;;;;;;;;;21.70;46.30;;;;;;8331402;28;19917;-44
2022/09/17 00:38:20;;;;;;;;;;;21.70;46.30;;;;;;8331187;28;20048;-44
2022/09/17 00:42:21;;;;;;;;;;;21.70;46.30;;;;;;8330727;28;19987;-44
2022/09/17 00:46:36;;;;;;;;;;;21.80;46.30;;;;;;8331083;28;20452;-45
2022/09/17 00:50:38;;;;;;;;;;;21.70;46.40;;;;;;8330489;28;19913;-43
2022/09/17 00:54:41;;;;;;;;;;;21.70;46.40;;;;;;8331268;28;19920;-44
2022/09/17 00:58:42;;;;;;;;;;;21.70;46.30;;;;;;8331004;28;19921;-44
2022/09/17 01:02:42;;;;;;;;;;;21.70;46.30;;;;;;8330264;28;20416;-45
2022/09/17 01:07:01;;;;;;;;;;;21.70;46.40;;;;;;8329651;28;19948;-44
2022/09/17 01:11:16;;;;;;;;;;;21.70;46.30;;;;;;8330645;28;20332;-45
2022/09/17 01:15:30;;;;;;;;;;;21.70;46.40;;;;;;8330539;28;20000;-45
2022/09/17 01:19:49;;;;;;;;;;;21.60;46.30;;;;;;8330567;28;19924;-44
2022/09/17 01:24:02;;;;;;;;;;;21.70;46.40;;;;;;8328935;28;19917;-43
2022/09/17 01:28:22;;;;;;;;;;;21.60;46.30;;;;;;8330285;28;19932;-48
2022/09/17 01:32:24;;;;;;;;;;;21.60;46.30;;;;;;8329749;28;19917;-46
2022/09/17 01:36:36;;;;;;;;;;;21.60;46.30;;;;;;8330139;28;19956;-48
2022/09/17 01:40:49;;;;;;;;;;;21.60;46.30;;;;;;8330354;28;19928;-45
2022/09/17 01:45:04;;;;;;;;;;;21.60;46.30;;;;;;8329533;28;19921;-44
2022/09/17 01:49:05;;;;;;;;;;;21.60;46.30;;;;;;8329918;28;19917;-44
2022/09/17 01:53:07;;;;;;;;;;;21.60;46.30;;;;;;8329881;28;19953;-44
2022/09/17 01:57:11;;;;;;;;;;;21.50;46.20;;;;;;8329316;28;19921;-45
2022/09/17 02:01:13;;;;;;;;;;;21.60;46.30;;;;;;8330080;28;19979;-44
2022/09/17 02:05:16;;;;;;;;;;;21.60;46.20;;;;;;8330246;28;19960;-44
2022/09/17 02:09:21;;;;;;;;;;;21.50;46.20;;;;;;8329408;28;19917;-44
2022/09/17 02:13:26;;;;;;;;;;;21.50;46.20;;;;;;8329865;28;19960;-45
2022/09/17 02:17:45;;;;;;;;;;;21.50;46.20;;;;;;8329493;28;19917;-44
2022/09/17 02:21:48;;;;;;;;;;;21.50;46.20;;;;;;8329940;28;19924;-45
2022/09/17 02:25:56;;;;;;;;;;;21.50;46.20;;;;;;8329775;28;20370;-45
2022/09/17 02:29:56;;;;;;;;;;;21.50;46.20;;;;;;8328991;28;19963;-45
2022/09/17 02:34:00;;;;;;;;;;;21.50;46.20;;;;;;8331002;28;19917;-46
2022/09/17 02:38:00;;;;;;;;;;;21.50;46.60;;;;;;8335070;28;20006;-45
2022/09/17 02:42:11;;;;;;;;;;;21.50;46.20;;;;;;8334415;28;20374;-45
2022/09/17 02:46:30;;;;;;;;;;;21.40;46.10;;;;;;8335066;28;20008;-45
2022/09/17 02:50:39;;;;;;;;;;;21.50;46.10;;;;;;8334526;28;20405;-44
2022/09/17 02:54:51;;;;;;;;;;;21.50;46.10;;;;;;8335131;28;20263;-45
2022/09/17 02:58:55;;;;;;;;;;;21.40;46.10;;;;;;8334523;28;20118;-45
2022/09/17 03:03:04;;;;;;;;;;;21.40;46.00;;;;;;8333953;28;20366;-45
2022/09/17 03:07:08;;;;;;;;;;;21.40;46.00;;;;;;8334167;28;20444;-44
2022/09/17 03:11:09;;;;;;;;;;;21.40;46.00;;;;;;8334368;28;19952;-45
2022/09/17 03:15:10;;;;;;;;;;;21.40;46.00;;;;;;8333571;28;19924;-44
2022/09/17 03:19:10;;;;;;;;;;;21.40;46.00;;;;;;8333740;28;20008;-44
2022/09/17 03:23:11;;;;;;;;;;;21.40;46.00;;;;;;8333686;28;20301;-44
2022/09/17 03:27:11;;;;;;;;;;;21.40;46.10;;;;;;8333066;28;20437;-46
2022/09/17 03:31:12;;;;;;;;;;;21.30;46.00;;;;;;8333609;28;19917;-44
2022/09/17 03:35:12;;;;;;;;;;;21.30;46.00;;;;;;8333225;28;19917;-45
2022/09/17 03:39:13;;;;;;;;;;;21.30;46.00;;;;;;8332755;28;20390;-45
2022/09/17 03:43:13;;;;;;;;;;;21.30;46.00;;;;;;8333028;28;19917;-44
2022/09/17 03:47:15;;;;;;;;;;;21.30;46.00;;;;;;8331834;28;19929;-45
2022/09/17 03:51:16;;;;;;;;;;;21.30;46.00;;;;;;8332652;28;20012;-46
2022/09/17 03:55:16;;;;;;;;;;;21.30;46.00;;;;;;8332711;28;19984;-45
2022/09/17 03:59:17;;;;;;;;;;;21.30;46.00;;;;;;8332581;28;20359;-44
2022/09/17 04:03:17;;;;;;;;;;;21.30;46.00;;;;;;8322250;28;19924;-44
2022/09/17 04:07:18;;;;;;;;;;;21.20;46.00;;;;;;8332467;28;19964;-44
2022/09/17 04:11:18;;;;;;;;;;;21.30;46.00;;;;;;8332426;28;19920;-45
2022/09/17 04:15:19;;;;;;;;;;;21.20;45.90;;;;;;8331565;28;19948;-44
2022/09/17 04:19:19;;;;;;;;;;;21.20;45.90;;;;;;8331807;28;19917;-44
2022/09/17 04:23:20;;;;;;;;;;;21.20;45.90;;;;;;8332244;28;19963;-44
2022/09/17 04:27:20;;;;;;;;;;;21.20;45.90;;;;;;8331107;28;19925;-44
2022/09/17 04:31:23;;;;;;;;;;;21.20;45.90;;;;;;8331947;28;19919;-44
2022/09/17 04:35:24;;;;;;;;;;;21.20;46.40;;;;;;8330762;28;19968;-45
2022/09/17 04:39:24;;;;;;;;;;;21.20;45.90;;;;;;8331428;28;20298;-45
2022/09/17 04:43:25;;;;;;;;;;;21.20;45.90;;;;;;8331124;28;19917;-45
2022/09/17 04:47:25;;;;;;;;;;;21.20;45.90;;;;;;8330727;28;19928;-47
2022/09/17 04:51:26;;;;;;;;;;;21.10;45.80;;;;;;8331671;28;19917;-48
2022/09/17 04:55:26;;;;;;;;;;;21.10;45.80;;;;;;8330859;28;20008;-44
2022/09/17 04:59:27;;;;;;;;;;;21.10;45.80;;;;;;8330134;28;19917;-43
2022/09/17 05:03:27;;;;;;;;;;;21.10;45.80;;;;;;8330709;28;19917;-45
2022/09/17 05:07:27;;;;;;;;;;;21.10;45.70;;;;;;8330389;28;19925;-45
2022/09/17 05:11:28;;;;;;;;;;;21.10;45.80;;;;;;8330386;28;20012;-45
2022/09/17 05:15:28;;;;;;;;;;;21.10;45.80;;;;;;8330715;28;20294;-45
2022/09/17 05:19:29;;;;;;;;;;;21.10;45.80;;;;;;8330569;28;19917;-45
2022/09/17 05:23:30;;;;;;;;;;;21.10;45.80;;;;;;8329945;28;19924;-45
2022/09/17 05:27:30;;;;;;;;;;;21.00;45.70;;;;;;8356252;28;19928;-43
2022/09/17 05:31:31;;;;;;;;;;;21.00;45.70;;;;;;8330743;28;19917;-44
2022/09/17 05:35:32;;;;;;;;;;;21.10;45.70;;;;;;8329525;28;20125;-46
2022/09/17 05:39:32;;;;;;;;;;;21.00;45.70;;;;;;8330027;28;20382;-45
2022/09/17 05:43:33;;;;;;;;;;;21.00;45.60;;;;;;8330041;28;19924;-46
2022/09/17 05:47:34;;;;;;;;;;;21.00;45.70;;;;;;8329697;28;19960;-46
2022/09/17 05:51:34;;;;;;;;;;;21.00;45.80;;;;;;8329984;28;19992;-45
2022/09/17 05:55:35;;;;;;;;;;;21.00;45.70;;;;;;8329891;28;19917;-47
2022/09/17 05:59:35;;;;;;;;;;;21.00;45.70;;;;;;8329312;28;19963;-45
2022/09/17 06:03:36;;;;;;;;;;;21.00;45.70;;;;;;8329881;28;19918;-44
2022/09/17 06:07:37;;;;;;;;;;;21.00;45.70;;;;;;8329872;28;20306;-47
2022/09/17 06:11:37;;;;;;;;;;;21.00;45.70;;;;;;8335372;28;19986;-46
2022/09/17 06:15:38;;;;;;;;;;;21.00;45.70;;;;;;8336054;28;20002;-45
2022/09/17 06:19:38;;;;;;;;;;;21.00;45.70;;;;;;8335777;28;19918;-48
2022/09/17 06:23:39;;;;;;;;;;;21.00;45.70;;;;;;8335185;28;19963;-44
2022/09/17 06:27:39;;;;;;;;;;;21.00;45.70;;;;;;8335767;28;19956;-47
2022/09/17 06:31:42;;;;;;;;;;;21.10;45.60;;;;;;8335521;28;20040;-45
2022/09/17 06:35:43;;;;;;;;;;;21.10;45.60;;;;;;8334831;28;19925;-45
2022/09/17 06:39:44;;;;;;;;;;;21.00;45.50;;;;;;8334979;28;20321;-46
2022/09/17 06:43:45;;;;;;;;;;;21.00;45.60;;;;;;8334865;28;19953;-45
2022/09/17 06:47:45;;;;;;;;;;;21.00;45.60;;;;;;8334493;28;20317;-46
2022/09/17 06:51:45;;;;;;;;;;;21.00;45.60;;;;;;8334774;28;19924;-45
2022/09/17 06:55:46;;;;;;;;;;;21.00;45.60;;;;;;8334682;28;19917;-48
2022/09/17 06:59:48;;;;;;;;;;;21.00;45.70;;;;;;8333925;28;20381;-46
2022/09/17 07:03:49;;;;;;;;;;;21.00;45.70;;;;;;8334596;28;19914;-46
2022/09/17 07:07:49;;;;;;;;;;;21.00;45.70;;;;;;8309266;28;20370;-46
2022/09/17 07:11:50;;;;;;;;;;;21.00;45.70;;;;;;8331628;28;19952;-45
2022/09/17 07:15:54;;;;;;;;;;;21.00;45.70;;;;;;8333861;28;19963;-47
2022/09/17 07:19:55;;;;;;;;;;;21.00;45.70;;;;;;8333776;28;19914;-49
2022/09/17 07:23:55;;;;;;;;;;;21.00;45.70;;;;;;8333274;28;19944;-48
2022/09/17 07:27:56;;;;;;;;;;;21.00;45.70;;;;;;8333993;28;19921;-46
2022/09/17 07:31:58;;;;;;;;;;;20.90;45.70;;;;;;8333605;28;20024;-45
2022/09/17 07:36:00;;;;;;;;;;;20.90;45.60;;;;;;8331974;28;19921;-46
2022/09/17 07:40:00;;;;;;;;;;;20.90;45.70;;;;;;8333543;28;20008;-45
2022/09/17 07:44:01;;;;;;;;;;;20.90;45.70;;;;;;8333226;28;19920;-44
2022/09/17 07:48:01;;;;;;;;;;;20.90;45.60;;;;;;8332757;28;20016;-47
2022/09/17 07:52:05;;;;;;;;;;;20.90;45.60;;;;;;8332844;28;19928;-45
2022/09/17 07:56:06;;;;;;;;;;;20.90;45.70;;;;;;8332697;28;19920;-45
2022/09/17 08:00:08;;;;;;;;;;;20.90;45.70;;;;;;8332043;28;19918;-46
2022/09/17 08:04:08;;;;;;;;;;;20.90;45.60;;;;;;8332297;28;20297;-45
2022/09/17 08:08:09;;;;;;;;;;;20.90;45.70;;;;;;8332386;28;19925;-47
2022/09/17 08:12:09;;;;;;;;;;;20.90;45.60;;;;;;8331720;28;19917;-44
2022/09/17 08:16:12;;;;;;;;;;;20.90;45.60;;;;;;8332011;28;19921;-46
2022/09/17 08:20:13;;;;;;;;;;;20.90;45.60;;;;;;8332031;28;20362;-46
2022/09/17 08:24:13;;;;;;;;;;;21.00;45.60;;;;;;8331412;28;19924;-47
2022/09/17 08:28:13;;;;;;;;;;;20.90;45.60;;;;;;8332098;28;19928;-46
2022/09/17 08:32:14;;;;;;;;;;;20.90;45.50;;;;;;8331037;28;19963;-46
2022/09/17 08:36:15;;;;;;;;;;;21.00;45.60;;;;;;8330847;28;19996;-47
2022/09/17 08:40:18;;;;;;;;;;;21.00;45.60;;;;;;8331456;28;19948;-46
2022/09/17 08:44:21;;;;;;;;;;;21.00;45.60;;;;;;8331254;28;19917;-45
2022/09/17 08:48:24;;;;;;;;;;;21.00;45.50;;;;;;8330991;28;19921;-46
2022/09/17 08:52:43;;;;;;;;;;;21.00;45.50;;;;;;8331006;28;20439;-45
2022/09/17 08:56:44;;;;;;;;;;;21.00;45.50;;;;;;8330654;28;20273;-46
2022/09/17 09:00:49;;;;;;;;;;;21.00;45.50;;;;;;8330871;28;19917;-46
2022/09/17 09:05:01;;;;;;;;;;;21.00;45.50;;;;;;8330550;28;19936;-46
2022/09/17 09:09:08;;;;;;;;;;;21.00;45.50;;;;;;8330231;28;19917;-45
2022/09/17 09:13:10;;;;;;;;;;;21.00;45.50;;;;;;8330790;28;20043;-45
2022/09/17 09:17:10;;;;;;;;;;;21.00;45.50;;;;;;8330653;28;19917;-46
2022/09/17 09:21:11;;;;;;;;;;;21.00;45.40;;;;;;8330097;28;19962;-45
2022/09/17 09:25:22;;;;;;;;;;;21.00;45.40;;;;;;8330265;28;19921;-46
2022/09/17 09:29:28;;;;;;;;;;;21.00;45.40;;;;;;8329984;28;20386;-46
2022/09/17 09:33:36;;;;;;;;;;;21.00;45.30;;;;;;8330385;28;19954;-45
2022/09/17 09:37:38;;;;;;;;;;;21.00;45.40;;;;;;8330168;28;19993;-46
2022/09/17 09:41:42;;;;;;;;;;;21.10;45.30;;;;;;8329852;28;19913;-47
2022/09/17 09:45:48;;;;;;;;;;;21.10;45.20;;;;;;8335013;28;19987;-45
2022/09/17 09:50:07;;;;;;;;;;;21.10;45.20;;;;;;8336743;28;20432;-45
2022/09/17 09:54:27;;;;;;;;;;;21.10;45.20;;;;;;8336399;28;20007;-46
2022/09/17 09:58:35;;;;;;;;;;;21.10;45.10;;;;;;8336735;28;19917;-45
2022/09/17 10:02:35;;;;;;;;;;;21.10;45.10;;;;;;8336061;28;19924;-46
2022/09/17 10:06:36;;;;;;;;;;;21.10;45.00;;;;;;8336216;28;19926;-46
2022/09/17 10:10:51;;;;;;;;;;;21.10;44.90;;;;;;8336045;28;19913;-45
2022/09/17 10:14:52;;;;;;;;;;;21.20;45.00;;;;;;8307197;28;19957;-47
2022/09/17 10:19:02;;;;;;;;;;;21.20;45.00;;;;;;8336246;28;19929;-47
2022/09/17 10:23:04;;;;;;;;;;;21.20;44.90;;;;;;8335721;28;20443;-45
2022/09/17 10:27:12;;;;;;;;;;;21.20;44.90;;;;;;8335210;28;19925;-45
2022/09/17 10:31:13;;;;;;;;;;;21.10;44.90;;;;;;8334499;28;19918;-45
2022/09/17 10:35:13;;;;;;;;;;;21.10;44.90;;;;;;8335423;28;19916;-46
2022/09/17 10:39:17;;;;;;;;;;;21.20;45.00;;;;;;8333068;28;20016;-45
2022/09/17 10:43:20;;;;;;;;;;;21.10;44.90;;;;;;8333151;28;19980;-45
2022/09/17 10:47:23;;;;;;;;;;;21.20;45.00;;;;;;8333177;28;19971;-44
2022/09/17 10:51:24;;;;;;;;;;;21.20;45.00;;;;;;8332754;28;19952;-46
2022/09/17 10:55:32;;;;;;;;;;;21.20;44.90;;;;;;8332500;28;19917;-46
2022/09/17 10:59:35;;;;;;;;;;;21.20;44.90;;;;;;8332619;28;19917;-46
2022/09/17 11:03:36;;;;;;;;;;;21.20;44.90;;;;;;8332711;28;19944;-47
2022/09/17 11:07:46;;;;;;;;;;;21.20;44.80;;;;;;8332633;28;19964;-46
2022/09/17 11:12:05;;;;;;;;;;;21.20;44.80;;;;;;8332139;28;20354;-44
2022/09/17 11:16:23;;;;;;;;;;;21.30;44.70;;;;;;8332239;28;19976;-46
2022/09/17 11:20:26;;;;;;;;;;;21.30;44.70;;;;;;8331892;28;19921;-44
2022/09/17 11:24:32;;;;;;;;;;;21.20;44.70;;;;;;8332587;28;20393;-42
2022/09/17 11:29:02;;;;;;;;;;;21.30;45.20;;;;;;8332281;28;19936;-43
2022/09/17 11:33:12;;;;;;;;;;;21.30;44.70;;;;;;8262295;28;20059;-44
2022/09/17 11:37:18;;;;;;;;;;;21.30;44.70;;;;;;8257274;28;1757403;-43
2022/09/17 11:41:20;;;;;;;;;;;21.30;44.70;;;;;;8333383;28;19920;-44
2022/09/17 11:45:21;;;;;;;;;;;21.30;44.70;;;;;;8332652;28;19928;-46
2022/09/17 11:49:29;;;;;;;;;;;21.30;44.60;;;;;;8333296;28;19920;-43
2022/09/17 11:53:31;;;;;;;;;;;21.40;44.70;;;;;;8332600;28;20397;-44
2022/09/17 11:57:33;;;;;;;;;;;21.40;44.60;;;;;;8333183;28;20024;-44
2022/09/17 12:01:39;;;;;;;;;;;21.40;44.70;;;;;;8332668;28;19913;-44
2022/09/17 12:05:48;;;;;;;;;;;21.40;44.50;;;;;;8329865;28;20043;-45
2022/09/17 12:09:52;;;;;;;;;;;21.40;44.60;;;;;;8327638;28;19919;-44
2022/09/17 12:13:59;;;;;;;;;;;21.40;44.40;;;;;;8332457;28;19925;-44
2022/09/17 12:18:03;;;;;;;;;;;21.40;44.40;;;;;;8331743;28;20274;-44
2022/09/17 12:22:07;;;;;;;;;;;21.50;44.50;;;;;;8332243;28;20378;-44
2022/09/17 12:26:13;;;;;;;;;;;21.50;44.50;;;;;;8332080;28;19921;-43
2022/09/17 12:30:16;;;;;;;;;;;21.40;44.40;;;;;;8331371;28;20362;-45
2022/09/17 12:34:23;;;;;;;;;;;21.50;44.40;;;;;;8331476;28;19917;-45
2022/09/17 12:38:34;;;;;;;;;;;21.50;44.40;;;;;;8331028;28;19964;-44
2022/09/17 12:42:40;;;;;;;;;;;21.50;44.40;;;;;;8331461;28;19924;-45
2022/09/17 12:46:59;;;;;;;;;;;21.50;44.40;;;;;;8331225;28;19921;-44
2022/09/17 12:51:18;;;;;;;;;;;21.50;44.40;;;;;;8330699;28;20385;-44
2022/09/17 12:55:24;;;;;;;;;;;21.50;44.50;;;;;;8331398;28;20389;-44
2022/09/17 12:59:30;;;;;;;;;;;21.40;44.40;;;;;;8330454;28;19921;-45
2022/09/17 13:03:36;;;;;;;;;;;21.50;44.50;;;;;;8330578;28;19924;-44
2022/09/17 13:07:57;;;;;;;;;;;21.40;44.40;;;;;;8330548;28;19921;-45
2022/09/17 13:12:09;;;;;;;;;;;21.40;44.40;;;;;;8318096;28;19921;-44
2022/09/17 13:16:09;;;;;;;;;;;21.40;44.60;;;;;;8330468;28;19975;-45
2022/09/17 13:20:10;;;;;;;;;;;21.40;44.60;;;;;;8330527;28;20424;-45
2022/09/17 13:24:18;;;;;;;;;;;21.40;44.60;;;;;;8329894;28;19923;-45
2022/09/17 13:28:18;;;;;;;;;;;21.40;44.60;;;;;;8330432;28;19965;-45
2022/09/17 13:32:31;;;;;;;;;;;21.40;44.60;;;;;;8330288;28;20381;-45
2022/09/17 13:36:31;;;;;;;;;;;21.40;44.60;;;;;;8329894;28;19932;-45
2022/09/17 13:40:35;;;;;;;;;;;21.40;44.60;;;;;;8330257;28;20374;-44
2022/09/17 13:44:38;;;;;;;;;;;21.40;44.60;;;;;;8329747;28;19917;-44
2022/09/17 13:48:48;;;;;;;;;;;21.40;44.60;;;;;;8329850;28;19960;-45
2022/09/17 13:52:49;;;;;;;;;;;21.40;44.60;;;;;;8329978;28;19917;-43
2022/09/17 13:57:01;;;;;;;;;;;21.30;44.60;;;;;;8329702;28;19964;-45
2022/09/17 14:01:03;;;;;;;;;;;21.40;44.60;;;;;;8330249;28;19942;-44
2022/09/17 14:05:23;;;;;;;;;;;21.40;44.70;;;;;;8329894;28;19918;-44
2022/09/17 14:09:31;;;;;;;;;;;21.30;44.60;;;;;;8329483;28;19996;-45
2022/09/17 14:13:34;;;;;;;;;;;21.30;44.60;;;;;;8329505;28;19929;-43
2022/09/17 14:17:49;;;;;;;;;;;21.30;44.60;;;;;;8329222;28;19917;-44
2022/09/17 14:21:59;;;;;;;;;;;21.30;44.60;;;;;;8329686;28;19917;-43
2022/09/17 14:26:01;;;;;;;;;;;21.40;44.60;;;;;;8329535;28;19928;-43
2022/09/17 14:30:20;;;;;;;;;;;21.30;44.60;;;;;;8331005;28;20325;-44
2022/09/17 14:34:22;;;;;;;;;;;21.40;44.60;;;;;;8335558;28;20366;-43
2022/09/17 14:38:33;;;;;;;;;;;21.30;44.50;;;;;;8334790;28;20017;-43
2022/09/17 14:42:35;;;;;;;;;;;21.30;44.50;;;;;;8334967;28;19917;-45
2022/09/17 14:46:54;;;;;;;;;;;21.30;44.40;;;;;;8335023;28;19931;-43
2022/09/17 14:51:14;;;;;;;;;;;21.30;44.40;;;;;;8334431;28;19945;-45
2022/09/17 14:55:19;;;;;;;;;;;21.30;44.40;;;;;;8335161;28;19940;-44
2022/09/17 14:59:25;;;;;;;;;;;21.30;44.40;;;;;;8334693;28;19917;-44
2022/09/17 15:03:26;;;;;;;;;;;21.30;44.40;;;;;;8334551;28;20004;-43
2022/09/17 15:07:27;;;;;;;;;;;21.30;44.40;;;;;;8334340;28;19925;-44
2022/09/17 15:11:28;;;;;;;;;;;21.30;44.40;;;;;;8333834;28;19913;-44
2022/09/17 15:15:28;;;;;;;;;;;21.30;44.50;;;;;;8334418;28;20032;-43
2022/09/17 15:19:35;;;;;;;;;;;21.30;44.60;;;;;;8334202;28;19917;-44
2022/09/17 15:23:36;;;;;;;;;;;21.30;45.10;;;;;;8333429;28;19921;-44
2022/09/17 15:27:40;;;;;;;;;;;21.30;44.60;;;;;;8333788;28;19925;-45
2022/09/17 15:31:41;;;;;;;;;;;21.30;44.60;;;;;;8333591;28;19974;-45
2022/09/17 15:35:56;;;;;;;;;;;21.30;44.70;;;;;;8333373;28;20016;-44
2022/09/17 15:39:58;;;;;;;;;;;21.20;44.60;;;;;;8333251;28;19999;-46
2022/09/17 15:44:19;;;;;;;;;;;21.30;44.70;;;;;;8332405;28;19913;-44
2022/09/17 15:48:26;;;;;;;;;;;21.20;44.70;;;;;;8332609;28;20366;-44
2022/09/17 15:52:30;;;;;;;;;;;21.30;44.70;;;;;;8333203;28;19913;-44
2022/09/17 15:56:34;;;;;;;;;;;21.20;44.70;;;;;;8332834;28;19917;-44
2022/09/17 16:00:34;;;;;;;;;;;21.20;44.70;;;;;;8332820;28;19924;-44
2022/09/17 16:04:35;;;;;;;;;;;21.20;44.70;;;;;;8332876;28;20370;-44
2022/09/17 16:08:35;;;;;;;;;;;21.20;44.70;;;;;;8332210;28;19922;-44
2022/09/17 16:12:36;;;;;;;;;;;21.20;44.70;;;;;;8316600;28;19914;-45
2022/09/17 16:16:36;;;;;;;;;;;21.20;44.70;;;;;;8332601;28;19921;-45
2022/09/17 16:20:37;;;;;;;;;;;21.20;44.70;;;;;;8331773;28;19928;-45
2022/09/17 16:24:37;;;;;;;;;;;21.20;44.70;;;;;;8332093;28;20370;-46
2022/09/17 16:28:38;;;;;;;;;;;21.20;44.70;;;;;;8331956;28;19925;-45
2022/09/17 16:32:39;;;;;;;;;;;21.20;44.80;;;;;;8331640;28;19917;-44
2022/09/17 16:36:39;;;;;;;;;;;21.20;44.70;;;;;;8331787;28;19928;-44
2022/09/17 16:40:45;;;;;;;;;;;21.10;44.70;;;;;;8331488;28;20285;-44
2022/09/17 16:44:45;;;;;;;;;;;21.20;44.80;;;;;;8331219;28;19923;-44
2022/09/17 16:48:49;;;;;;;;;;;21.10;44.70;;;;;;8331459;28;19929;-45
2022/09/17 16:52:49;;;;;;;;;;;21.10;44.80;;;;;;8330816;28;19921;-43
2022/09/17 16:56:50;;;;;;;;;;;21.10;45.30;;;;;;8330984;28;19947;-43
2022/09/17 17:00:50;;;;;;;;;;;21.10;44.80;;;;;;8331211;28;19918;-44
2022/09/17 17:04:51;;;;;;;;;;;21.10;44.70;;;;;;8330962;28;20124;-46
2022/09/17 17:08:51;;;;;;;;;;;21.10;44.70;;;;;;8330309;28;19925;-45
2022/09/17 17:12:52;;;;;;;;;;;21.10;44.80;;;;;;8330653;28;19924;-45
2022/09/17 17:16:53;;;;;;;;;;;21.10;44.80;;;;;;8331039;28;19917;-45
2022/09/17 17:20:53;;;;;;;;;;;21.00;44.70;;;;;;8330179;28;19948;-45
2022/09/17 17:24:54;;;;;;;;;;;21.10;44.80;;;;;;8330350;28;19921;-44
2022/09/17 17:28:54;;;;;;;;;;;21.10;44.80;;;;;;8330382;28;20007;-44
2022/09/17 17:32:55;;;;;;;;;;;21.00;44.80;;;;;;8329829;28;20424;-44
2022/09/17 17:36:55;;;;;;;;;;;21.00;44.80;;;;;;8330569;28;19924;-43
2022/09/17 17:41:07;;;;;;;;;;;21.00;44.70;;;;;;8330243;28;20381;-45
2022/09/17 17:45:07;;;;;;;;;;;21.00;44.70;;;;;;8329608;28;19918;-43
2022/09/17 17:49:08;;;;;;;;;;;21.00;44.80;;;;;;8330004;28;19963;-45
2022/09/17 17:53:08;;;;;;;;;;;21.00;44.80;;;;;;8330144;28;19963;-44
2022/09/17 17:57:10;;;;;;;;;;;21.00;44.80;;;;;;8329744;28;19913;-44
2022/09/17 18:01:14;;;;;;;;;;;21.00;44.80;;;;;;8330315;28;20297;-44
2022/09/17 18:05:15;;;;;;;;;;;21.00;44.80;;;;;;8332258;28;19913;-48
2022/09/17 18:09:16;;;;;;;;;;;21.00;44.80;;;;;;8335819;28;20004;-45
2022/09/17 18:13:16;;;;;;;;;;;21.00;44.80;;;;;;8336161;28;19913;-46
2022/09/17 18:17:16;;;;;;;;;;;21.00;44.80;;;;;;8336309;28;19917;-45
2022/09/17 18:21:18;;;;;;;;;;;20.90;44.80;;;;;;8335469;28;19956;-45
2022/09/17 18:25:19;;;;;;;;;;;21.00;44.80;;;;;;8335953;28;19917;-47
2022/09/17 18:29:19;;;;;;;;;;;20.90;44.80;;;;;;8335667;28;19913;-44
2022/09/17 18:33:23;;;;;;;;;;;20.90;44.80;;;;;;8335030;28;19918;-45
2022/09/17 18:37:23;;;;;;;;;;;20.90;44.80;;;;;;8335666;28;19921;-46
2022/09/17 18:41:24;;;;;;;;;;;20.90;44.80;;;;;;8334951;28;19917;-46
2022/09/17 18:45:24;;;;;;;;;;;20.90;44.90;;;;;;8334996;28;19921;-46
2022/09/17 18:49:25;;;;;;;;;;;20.90;44.90;;;;;;8335030;28;19913;-45
2022/09/17 18:53:26;;;;;;;;;;;20.90;44.90;;;;;;8334488;28;20417;-46
2022/09/17 18:57:26;;;;;;;;;;;20.90;44.90;;;;;;8335372;28;19913;-46
2022/09/17 19:01:28;;;;;;;;;;;20.90;44.90;;;;;;8334810;28;19924;-44
2022/09/17 19:05:28;;;;;;;;;;;20.90;44.90;;;;;;8334160;28;19921;-46
2022/09/17 19:09:29;;;;;;;;;;;20.90;45.00;;;;;;8333885;28;19924;-45
2022/09/17 19:13:33;;;;;;;;;;;20.90;45.00;;;;;;8334197;28;19920;-44
2022/09/17 19:17:34;;;;;;;;;;;20.80;44.90;;;;;;8333762;28;20369;-45
2022/09/17 19:21:34;;;;;;;;;;;20.90;45.00;;;;;;8334071;28;19924;-44
2022/09/17 19:25:35;;;;;;;;;;;20.80;44.90;;;;;;8333949;28;19925;-44
2022/09/17 19:29:36;;;;;;;;;;;20.80;44.90;;;;;;8333414;28;19913;-44
2022/09/17 19:33:36;;;;;;;;;;;20.80;44.90;;;;;;8333887;28;20336;-44
2022/09/17 19:37:37;;;;;;;;;;;20.80;44.90;;;;;;8333736;28;20003;-44
2022/09/17 19:41:37;;;;;;;;;;;20.80;44.90;;;;;;8332988;28;19921;-46
2022/09/17 19:45:38;;;;;;;;;;;20.80;44.90;;;;;;8333240;28;19992;-44
2022/09/17 19:49:38;;;;;;;;;;;20.80;45.50;;;;;;8333134;28;20385;-45
2022/09/17 19:53:39;;;;;;;;;;;20.80;45.00;;;;;;8332840;28;19971;-45
2022/09/17 19:57:39;;;;;;;;;;;20.80;45.00;;;;;;8333146;28;19953;-47
2022/09/17 20:01:40;;;;;;;;;;;20.80;45.00;;;;;;8332872;28;20059;-45
2022/09/17 20:05:40;;;;;;;;;;;20.70;44.90;;;;;;8332163;28;20438;-45
2022/09/17 20:09:41;;;;;;;;;;;20.70;44.90;;;;;;8331266;28;19992;-45
2022/09/17 20:13:41;;;;;;;;;;;20.70;45.00;;;;;;8332514;28;19931;-44
2022/09/17 20:17:42;;;;;;;;;;;20.70;45.00;;;;;;8332147;28;19917;-45
2022/09/17 20:21:42;;;;;;;;;;;20.70;45.00;;;;;;8332537;28;20008;-43
2022/09/17 20:25:49;;;;;;;;;;;20.70;45.00;;;;;;8331989;28;19940;-45
2022/09/17 20:29:50;;;;;;;;;;;20.70;45.00;;;;;;8330876;28;19917;-45
2022/09/17 20:33:52;;;;;;;;;;;20.70;45.00;;;;;;8331705;28;20373;-44
2022/09/17 20:37:52;;;;;;;;;;;20.70;45.10;;;;;;8331661;28;19921;-44
2022/09/17 20:41:52;;;;;;;;;;;20.70;45.00;;;;;;8331215;28;19928;-45
2022/09/17 20:45:56;;;;;;;;;;;20.70;45.10;;;;;;8331309;28;20459;-45
2022/09/17 20:49:57;;;;;;;;;;;20.60;45.10;;;;;;8331305;28;19920;-44
2022/09/17 20:53:57;;;;;;;;;;;20.60;45.00;;;;;;8330816;28;20440;-45
2022/09/17 20:57:57;;;;;;;;;;;20.70;45.10;;;;;;8331529;28;20008;-45
2022/09/17 21:01:58;;;;;;;;;;;20.60;45.10;;;;;;8330840;28;19917;-45
2022/09/17 21:05:59;;;;;;;;;;;20.60;45.10;;;;;;8330202;28;19926;-44
2022/09/17 21:09:59;;;;;;;;;;;20.60;45.10;;;;;;8330786;28;20370;-44
2022/09/17 21:14:00;;;;;;;;;;;20.60;45.10;;;;;;8330626;28;19917;-44
2022/09/17 21:18:00;;;;;;;;;;;20.60;45.10;;;;;;8330353;28;20016;-44
2022/09/17 21:22:00;;;;;;;;;;;20.60;45.20;;;;;;8330485;28;19924;-45
2022/09/17 21:26:02;;;;;;;;;;;20.60;45.10;;;;;;8330539;28;19921;-45
2022/09/17 21:30:08;;;;;;;;;;;20.60;45.20;;;;;;8330038;28;19968;-45
2022/09/17 21:34:09;;;;;;;;;;;20.60;45.10;;;;;;8334198;28;20003;-45
2022/09/17 21:38:10;;;;;;;;;;;20.50;45.10;;;;;;8331175;28;19957;-43
2022/09/17 21:42:10;;;;;;;;;;;20.60;45.20;;;;;;8336696;28;19917;-45
2022/09/17 21:46:12;;;;;;;;;;;20.60;45.20;;;;;;8337009;28;19925;-46
2022/09/17 21:50:12;;;;;;;;;;;20.50;45.10;;;;;;8337014;28;19913;-45
2022/09/17 21:54:16;;;;;;;;;;;20.50;45.10;;;;;;8336260;28;19921;-46
2022/09/17 21:58:16;;;;;;;;;;;20.50;45.20;;;;;;8337132;28;19924;-46
2022/09/17 22:02:17;;;;;;;;;;;20.50;45.20;;;;;;8335565;28;19917;-45
2022/09/17 22:06:18;;;;;;;;;;;20.50;45.20;;;;;;8334636;28;19925;-46
2022/09/17 22:10:19;;;;;;;;;;;20.50;45.20;;;;;;8336301;28;19917;-45
2022/09/17 22:14:21;;;;;;;;;;;20.50;45.20;;;;;;8336279;28;20362;-45
2022/09/17 22:18:21;;;;;;;;;;;20.40;45.20;;;;;;8336072;28;19918;-46
2022/09/17 22:22:22;;;;;;;;;;;20.40;45.10;;;;;;8335934;28;20357;-45
2022/09/17 22:26:23;;;;;;;;;;;20.40;45.10;;;;;;8335372;28;19921;-46
2022/09/17 22:30:24;;;;;;;;;;;20.40;45.70;;;;;;8335840;28;19944;-46
2022/09/17 22:34:25;;;;;;;;;;;20.40;45.20;;;;;;8335538;28;19972;-45
2022/09/17 22:38:25;;;;;;;;;;;20.40;45.20;;;;;;8335261;28;19960;-47
2022/09/17 22:42:26;;;;;;;;;;;20.40;45.20;;;;;;8335117;28;19917;-46
2022/09/17 22:46:27;;;;;;;;;;;20.40;45.20;;;;;;8335388;28;20015;-46
2022/09/17 22:50:27;;;;;;;;;;;20.40;45.20;;;;;;8334045;28;20370;-46
2022/09/17 22:54:28;;;;;;;;;;;20.40;45.20;;;;;;8334875;28;19917;-45
2022/09/17 22:58:28;;;;;;;;;;;20.40;45.20;;;;;;8335252;28;19986;-46
2022/09/17 23:02:29;;;;;;;;;;;20.40;45.20;;;;;;8334251;28;19940;-45
2022/09/17 23:06:31;;;;;;;;;;;20.40;45.20;;;;;;8333185;28;19929;-45
2022/09/17 23:10:34;;;;;;;;;;;20.40;45.20;;;;;;8334669;28;19924;-47
2022/09/17 23:14:34;;;;;;;;;;;20.40;45.30;;;;;;8334028;28;19921;-46
2022/09/17 23:18:35;;;;;;;;;;;20.40;45.20;;;;;;8334630;28;20282;-45
2022/09/17 23:22:35;;;;;;;;;;;20.30;45.20;;;;;;8334064;28;19963;-46
2022/09/17 23:26:36;;;;;;;;;;;20.40;45.20;;;;;;8333444;28;20273;-45
2022/09/17 23:30:36;;;;;;;;;;;20.30;45.20;;;;;;8334114;28;19932;-44
2022/09/17 23:34:40;;;;;;;;;;;20.30;45.20;;;;;;8333859;28;19917;-46